Starburst — WDG8075 — position and weather

sailwx.info

Track history (hours):
 
Tides and Currents Weather Stations Pressure Air Temp Water Temp Dewpoint Dewpoint Depression Visibility Wind Speed Wind Dir Waves Ship Positions

Starburst

Owner: McCann, Matthew J, Bethesda, MD. More information available from US FCC via Universal Licensing System and Coast Guard Vessel Documentation Center.

Last reported at 2018-May-25 12:42 UTC. Time now 2018-Jul-17 05:22 UTC.
Position N 38°48' W 076°26'.
Warning: this ship's position is 52 days out of date.

Length 13 m.

Type: Sailing vessel. MMSI: 367573750.

Date/timePositionNaut miles runAvg speedWind from/ knotsBaromVisibWave heightAir tempDewpointWater temp
2018-May-25 12:42N 38°48' W 076°26'1 5.2
2018-May-25 12:29N 38°49' W 076°27'3 6.1
2018-May-25 12:00N 38°51' W 076°28'3 5.8
2018-May-25 11:30N 38°54' W 076°29'2 4.6
2018-May-25 11:00N 38°56' W 076°31'  
2018-May-19 17:38N 38°56' W 076°31'0 0.2
2018-May-19 17:30N 38°56' W 076°31'3 5.6
2018-May-19 17:00N 38°54' W 076°28'2 4.9
2018-May-19 16:30N 38°56' W 076°26'  
2018-May-16 18:56N 38°59' W 076°28'3 6.9
2018-May-16 18:30N 38°56' W 076°26'3 6.3
2018-May-16 18:00N 38°53' W 076°26'  
Track history (hours):
 
Tides and Currents Weather Stations Pressure Air Temp Water Temp Dewpoint Dewpoint Depression Visibility Wind Speed Wind Dir Waves Ship Positions

Starburst

Owner: McCann, Matthew J, Bethesda, MD. More information available from US FCC via Universal Licensing System and Coast Guard Vessel Documentation Center.

Last reported at 2018-May-25 12:42 UTC. Time now 2018-Jul-17 05:22 UTC.
Position N 38°48' W 076°26'.
Warning: this ship's position is 52 days out of date.

Length 13 m.

Type: Sailing vessel. MMSI: 367573750.

Date/timePositionNaut miles runAvg speedWind from/ knotsBaromVisibWave heightAir tempDewpointWater temp
2018-May-25 12:42N 38°48' W 076°26'1 5.2
2018-May-25 12:29N 38°49' W 076°27'3 6.1
2018-May-25 12:00N 38°51' W 076°28'3 5.8
2018-May-25 11:30N 38°54' W 076°29'2 4.6
2018-May-25 11:00N 38°56' W 076°31'  
2018-May-19 17:38N 38°56' W 076°31'0 0.2
2018-May-19 17:30N 38°56' W 076°31'3 5.6
2018-May-19 17:00N 38°54' W 076°28'2 4.9
2018-May-19 16:30N 38°56' W 076°26'  
2018-May-16 18:56N 38°59' W 076°28'3 6.9
2018-May-16 18:30N 38°56' W 076°26'3 6.3
2018-May-16 18:00N 38°53' W 076°26'  

Dump ship's entire track history